createdAt,value
2022-10-07T03:59:33.856Z,101844.38
2022-10-07T04:02:36.407Z,101844.38
2022-10-07T04:05:38.954Z,101844.59
2022-10-07T04:08:41.437Z,101837.47
2022-10-07T04:11:43.919Z,101842.12
2022-10-07T04:14:46.612Z,101834.56
2022-10-07T04:17:49.794Z,101841.75
2022-10-07T04:20:52.609Z,101843.66
2022-10-07T04:23:55.999Z,101836.66
2022-10-07T04:26:58.110Z,101827.81
2022-10-07T04:30:00.554Z,101828.31
2022-10-07T04:33:02.870Z,101833.47
2022-10-07T04:36:08.698Z,101831.88
2022-10-07T04:39:11.992Z,101832.19
2022-10-07T04:42:47.203Z,101832.16
2022-10-07T04:45:53.255Z,101843.87
2022-10-07T04:48:56.208Z,101842.47
2022-10-07T04:51:58.746Z,101849.97
2022-10-07T04:55:03.482Z,101847.22
2022-10-07T04:58:06.553Z,101845.47
2022-10-07T05:01:09.741Z,101843.03
2022-10-07T05:04:13.036Z,101852.78
2022-10-07T05:07:18.306Z,101851.78
2022-10-07T05:10:21.827Z,101851.69
2022-10-07T05:13:30.264Z,101854.47
2022-10-07T05:16:32.929Z,101859.06
2022-10-07T05:19:35.664Z,101860.84
2022-10-07T05:22:39.549Z,101858.56
2022-10-07T05:25:43.811Z,101870.44
2022-10-07T05:28:48.601Z,101868.78
2022-10-07T05:31:51.233Z,101868.84
2022-10-07T05:34:53.544Z,101863.94
2022-10-07T05:37:56.742Z,101858.38
2022-10-07T05:41:01.121Z,101864.88
2022-10-07T05:44:04.254Z,101861.13
2022-10-07T05:47:06.385Z,101862.19
2022-10-07T05:50:11.449Z,101864.63
2022-10-07T05:53:15.755Z,101863.66
2022-10-07T05:56:22.585Z,101858.62
2022-10-07T05:59:25.119Z,101867.22
2022-10-07T06:02:29.250Z,101866.91
2022-10-07T06:05:32.209Z,101866.91
2022-10-07T06:08:35.989Z,101868.00
2022-10-07T06:11:57.196Z,101869.91
2022-10-07T06:14:59.483Z,101867.78
2022-10-07T06:18:01.945Z,101864.41
2022-10-07T06:21:05.181Z,101872.25
2022-10-07T06:24:07.801Z,101871.22
2022-10-07T06:27:10.058Z,101872.03
2022-10-07T06:30:13.117Z,101881.81
2022-10-07T06:33:17.057Z,101880.78
2022-10-07T06:36:20.105Z,101876.59
2022-10-07T06:39:22.633Z,101869.34
2022-10-07T06:42:25.866Z,101859.09
2022-10-07T06:45:33.174Z,101866.97
2022-10-07T06:48:36.235Z,101869.62
2022-10-07T06:51:38.373Z,101870.22
2022-10-07T06:54:40.826Z,101867.81
2022-10-07T06:57:46.022Z,101863.22
2022-10-07T07:00:50.099Z,101871.63
2022-10-07T07:03:53.924Z,101866.50
2022-10-07T07:06:56.791Z,101864.06
2022-10-07T07:09:59.138Z,101868.41
2022-10-07T07:16:09.529Z,101870.00
2022-10-07T07:19:13.784Z,101867.31
2022-10-07T07:22:16.217Z,101863.25
2022-10-07T07:25:20.373Z,101859.97
2022-10-07T07:28:22.783Z,101846.94
2022-10-07T07:31:27.775Z,101860.13
2022-10-07T07:34:30.260Z,101854.69
2022-10-07T07:37:33.844Z,101858.44
2022-10-07T07:40:39.751Z,101850.59
2022-10-07T07:43:42.948Z,101851.41
2022-10-07T07:46:49.123Z,101844.63
2022-10-07T07:49:51.434Z,101842.44
2022-10-07T07:52:57.337Z,101844.28
2022-10-07T07:56:02.389Z,101849.41
2022-10-07T07:59:06.472Z,101845.81
2022-10-07T08:02:12.046Z,101842.31
2022-10-07T08:05:14.682Z,101846.00
2022-10-07T08:08:16.726Z,101838.97
2022-10-07T08:11:21.196Z,101831.59
2022-10-07T08:14:24.218Z,101826.37
2022-10-07T08:17:29.451Z,101831.66
2022-10-07T08:20:31.799Z,101831.38
2022-10-07T08:23:44.035Z,101825.06
2022-10-07T08:26:47.316Z,101823.16
2022-10-07T08:29:50.132Z,101827.38
2022-10-07T08:32:53.643Z,101829.63
2022-10-07T08:35:59.939Z,101828.84
2022-10-07T08:39:04.627Z,101824.94
2022-10-07T08:42:16.833Z,101822.25
2022-10-07T08:45:32.255Z,101818.34
2022-10-07T08:48:38.854Z,101813.72
2022-10-07T08:51:46.726Z,101808.53
2022-10-07T08:54:49.485Z,101802.84
2022-10-07T08:58:36.316Z,101803.34
2022-10-07T09:01:59.915Z,101806.28
2022-10-07T09:05:15.351Z,101805.69
2022-10-07T09:08:24.349Z,101797.22
2022-10-07T09:11:28.970Z,101797.38
2022-10-07T09:14:38.380Z,101789.25
2022-10-07T09:17:49.979Z,101783.75
2022-10-07T09:20:54.943Z,101778.25
2022-10-07T09:24:14.152Z,101776.06
2022-10-07T09:27:20.620Z,101779.06
2022-10-07T09:30:24.769Z,101771.47
2022-10-07T09:33:29.677Z,101772.69
2022-10-07T09:36:31.898Z,101767.22
2022-10-07T09:39:34.302Z,101769.72
2022-10-07T09:42:43.225Z,101757.47
2022-10-07T09:45:46.989Z,101747.16
2022-10-07T09:48:54.699Z,101741.34
2022-10-07T09:52:16.015Z,101740.06
2022-10-07T09:55:40.180Z,101737.03
2022-10-07T09:58:42.762Z,101734.84
2022-10-07T10:01:56.870Z,101730.94
2022-10-07T10:04:59.240Z,101716.25
2022-10-07T10:08:05.778Z,101722.69
2022-10-07T10:11:20.385Z,101717.72
2022-10-07T10:14:41.214Z,101711.75
2022-10-07T10:17:43.810Z,101706.84
2022-10-07T10:20:46.373Z,101708.34
2022-10-07T10:24:06.580Z,101705.75
2022-10-07T10:27:30.191Z,101707.16
2022-10-07T10:30:41.232Z,101694.69
2022-10-07T10:33:50.218Z,101696.94
2022-10-07T10:37:01.413Z,101684.63
2022-10-07T10:40:25.343Z,101681.63
2022-10-07T10:43:58.141Z,101675.00
2022-10-07T10:47:12.694Z,101677.72
2022-10-07T10:50:49.050Z,101663.13
2022-10-07T10:54:02.646Z,101658.50
2022-10-07T10:57:35.587Z,101655.56
2022-10-07T11:00:55.304Z,101653.84
2022-10-07T11:04:39.020Z,101647.19
2022-10-07T11:08:01.990Z,101634.09
2022-10-07T11:11:16.577Z,101630.97
2022-10-07T11:14:22.621Z,101619.41
2022-10-07T11:17:30.683Z,101615.09
2022-10-07T11:20:39.925Z,101611.62
2022-10-07T11:24:01.964Z,101601.19
2022-10-07T11:27:22.362Z,101600.75
2022-10-07T11:30:29.003Z,101595.75
2022-10-07T11:33:46.359Z,101586.91
2022-10-07T11:37:03.716Z,101578.38
2022-10-07T11:40:07.803Z,101576.66
2022-10-07T11:43:30.284Z,101575.00
2022-10-07T11:46:51.026Z,101566.59
2022-10-07T11:50:05.377Z,101569.00
2022-10-07T11:53:28.794Z,101565.78
2022-10-07T11:56:44.567Z,101551.41
2022-10-07T12:00:21.699Z,101549.19
2022-10-07T12:03:25.049Z,101541.81
2022-10-07T12:06:27.450Z,101535.94
2022-10-07T12:09:55.794Z,101538.06
2022-10-07T12:13:08.220Z,101528.16
2022-10-07T12:16:32.028Z,101519.88
2022-10-07T12:19:34.105Z,101515.69
2022-10-07T12:22:36.440Z,101510.09
2022-10-07T12:25:45.550Z,101509.28
2022-10-07T12:28:48.745Z,101506.28
2022-10-07T12:31:50.932Z,101490.78
2022-10-07T12:34:53.464Z,101502.00
2022-10-07T12:38:14.198Z,101497.06
2022-10-07T12:41:25.032Z,101490.16
2022-10-07T12:44:38.555Z,101488.25
2022-10-07T12:47:42.653Z,101488.13
2022-10-07T12:50:47.161Z,101480.47
2022-10-07T12:53:51.867Z,101477.06
2022-10-07T12:56:54.207Z,101475.16
2022-10-07T13:00:12.325Z,101476.44
2022-10-07T13:03:36.475Z,101464.25
2022-10-07T13:07:00.590Z,101462.03
2022-10-07T13:10:37.716Z,101460.41
2022-10-07T13:13:47.839Z,101454.53
2022-10-07T13:17:15.580Z,101453.44
2022-10-07T13:20:52.901Z,101448.28
2022-10-07T13:23:55.941Z,101437.09
2022-10-07T13:26:59.301Z,101431.88
2022-10-07T13:30:04.003Z,101432.34
2022-10-07T13:33:19.157Z,101429.16
2022-10-07T13:36:29.807Z,101420.34
2022-10-07T13:39:32.162Z,101416.03
2022-10-07T13:42:35.194Z,101418.12
2022-10-07T13:45:44.980Z,101417.16
2022-10-07T13:48:48.929Z,101415.91
2022-10-07T13:51:56.273Z,101417.84
2022-10-07T13:54:58.566Z,101408.06
2022-10-07T13:58:05.353Z,101410.31
2022-10-07T14:01:07.783Z,101410.00
2022-10-07T14:04:23.313Z,101406.28
2022-10-07T14:07:28.122Z,101395.41
2022-10-07T14:10:31.267Z,101393.31
2022-10-07T14:13:35.423Z,101383.91
2022-10-07T14:16:38.055Z,101380.03
2022-10-07T14:19:40.344Z,101378.44
2022-10-07T14:22:46.353Z,101374.44
2022-10-07T14:25:48.397Z,101378.28
2022-10-07T14:28:50.697Z,101378.09
2022-10-07T14:32:29.415Z,101371.22
2022-10-07T14:35:33.958Z,101371.56
2022-10-07T14:38:36.280Z,101371.84
2022-10-07T14:41:38.575Z,101368.84
2022-10-07T14:44:44.128Z,101363.41
2022-10-07T14:47:46.601Z,101365.78
2022-10-07T14:50:49.356Z,101368.19
2022-10-07T14:53:55.763Z,101366.69
2022-10-07T14:56:57.801Z,101359.03
2022-10-07T15:00:00.388Z,101354.22
2022-10-07T15:03:02.894Z,101357.56
2022-10-07T15:06:06.508Z,101351.81
2022-10-07T15:09:11.874Z,101347.50
2022-10-07T15:12:15.988Z,101347.28
2022-10-07T15:15:18.606Z,101348.25
2022-10-07T15:18:22.078Z,101346.16
